createdAt,value
2022-08-20T00:00:51.687Z,87.24
2022-08-20T00:04:25.599Z,87.46
2022-08-20T00:07:48.668Z,88.15
2022-08-20T00:11:12.615Z,89.00
2022-08-20T00:14:36.750Z,90.13
2022-08-20T00:17:59.607Z,90.30
2022-08-20T00:21:24.836Z,89.40
2022-08-20T00:24:49.625Z,88.82
2022-08-20T00:28:14.639Z,88.19
2022-08-20T00:31:37.658Z,88.91
2022-08-20T00:35:01.583Z,88.93
2022-08-20T00:38:24.663Z,91.53
2022-08-20T00:41:48.588Z,91.83
2022-08-20T00:45:11.631Z,91.51
2022-08-20T00:48:35.598Z,90.44
2022-08-20T00:52:01.634Z,89.10
2022-08-20T00:55:27.408Z,88.58
2022-08-20T00:58:54.643Z,89.83
2022-08-20T01:02:19.619Z,89.80
2022-08-20T01:05:43.638Z,89.30
2022-08-20T01:09:10.596Z,91.43
2022-08-20T01:12:35.632Z,93.53
2022-08-20T01:15:59.579Z,93.47
2022-08-20T01:19:29.691Z,93.90
2022-08-20T01:23:31.655Z,94.04
2022-08-20T01:26:57.601Z,94.69
2022-08-20T01:30:21.627Z,96.54
2022-08-20T01:33:45.608Z,96.24
2022-08-20T01:37:10.652Z,96.13
2022-08-20T01:40:36.650Z,95.38
2022-08-20T01:44:05.751Z,94.81
2022-08-20T01:47:36.406Z,94.05
2022-08-20T01:51:04.670Z,93.47
2022-08-20T01:54:21.218Z,91.91
2022-08-20T01:57:38.657Z,89.36
2022-08-20T02:01:02.600Z,89.37
2022-08-20T02:04:26.669Z,89.18
2022-08-20T02:07:50.649Z,90.73
2022-08-20T02:11:13.684Z,91.94
2022-08-20T02:14:37.634Z,92.73
2022-08-20T02:18:01.667Z,92.89
2022-08-20T02:21:24.638Z,94.20
2022-08-20T02:24:47.679Z,93.62
2022-08-20T02:28:12.686Z,93.84
2022-08-20T02:31:37.685Z,93.39
2022-08-20T02:35:21.657Z,94.45
2022-08-20T02:38:46.782Z,94.22
2022-08-20T02:42:10.634Z,94.22
2022-08-20T02:45:34.655Z,93.51
2022-08-20T02:48:57.656Z,92.89
2022-08-20T02:52:21.680Z,91.94
2022-08-20T02:55:38.353Z,91.59
2022-08-20T02:58:55.763Z,91.08
2022-08-20T03:02:19.662Z,91.19
2022-08-20T03:05:42.740Z,90.84
2022-08-20T03:09:05.675Z,89.95
2022-08-20T03:12:29.691Z,89.33
2022-08-20T03:15:58.463Z,86.54
2022-08-20T03:19:21.682Z,82.96
2022-08-20T03:22:43.655Z,84.04
2022-08-20T03:26:07.741Z,84.59
2022-08-20T03:29:31.678Z,82.35
2022-08-20T03:32:55.721Z,80.97
2022-08-20T03:36:22.086Z,81.53
2022-08-20T03:39:51.752Z,81.55
2022-08-20T03:43:13.926Z,81.64
2022-08-20T03:46:36.694Z,81.15
2022-08-20T03:50:00.715Z,81.72
2022-08-20T03:53:24.681Z,80.88
2022-08-20T03:56:47.715Z,81.22
2022-08-20T04:00:11.704Z,82.43
2022-08-20T04:03:34.789Z,81.64
2022-08-20T04:06:58.701Z,81.23
2022-08-20T04:10:22.718Z,81.78
2022-08-20T04:13:46.694Z,81.79
2022-08-20T04:17:12.734Z,82.76
2022-08-20T04:20:38.705Z,82.73
2022-08-20T04:24:03.754Z,82.36
2022-08-20T04:27:28.696Z,82.70
2022-08-20T04:30:52.109Z,81.33
2022-08-20T04:34:19.700Z,81.49
2022-08-20T04:37:43.739Z,80.98
2022-08-20T04:41:06.712Z,81.77
2022-08-20T04:44:30.765Z,81.69
2022-08-20T04:47:54.711Z,84.24
2022-08-20T04:51:24.611Z,83.22
2022-08-20T04:54:47.724Z,85.36
2022-08-20T04:58:17.765Z,84.84
2022-08-20T05:01:40.820Z,84.88
2022-08-20T05:05:04.767Z,84.81
2022-08-20T05:08:28.701Z,85.28
2022-08-20T05:11:52.807Z,84.21
2022-08-20T05:15:15.735Z,83.59
2022-08-20T05:18:41.707Z,83.71
2022-08-20T05:22:05.769Z,84.37
2022-08-20T05:25:29.757Z,85.33
2022-08-20T05:28:57.913Z,85.45
2022-08-20T05:32:21.989Z,85.04
2022-08-20T05:35:46.725Z,85.66
2022-08-20T05:39:09.759Z,86.88
2022-08-20T05:42:33.707Z,86.23
2022-08-20T05:46:00.776Z,86.95
2022-08-20T05:49:24.708Z,87.62
2022-08-20T05:52:47.799Z,88.17
2022-08-20T05:56:10.770Z,88.04
2022-08-20T05:59:33.750Z,87.20
2022-08-20T06:03:15.785Z,87.56
2022-08-20T06:06:45.911Z,88.66
2022-08-20T06:10:09.764Z,88.69
2022-08-20T06:13:34.801Z,89.28
2022-08-20T06:16:59.166Z,89.83
2022-08-20T06:20:23.788Z,89.98
2022-08-20T06:23:56.857Z,89.83
2022-08-20T06:27:21.826Z,89.30
2022-08-20T06:30:44.756Z,89.94
2022-08-20T06:34:08.773Z,90.33
2022-08-20T06:37:31.897Z,91.74
2022-08-20T06:40:55.734Z,91.36
2022-08-20T06:44:19.922Z,91.71
2022-08-20T06:47:42.742Z,91.38
2022-08-20T06:51:05.796Z,92.46
2022-08-20T06:54:29.737Z,91.72
2022-08-20T06:57:52.902Z,92.17
2022-08-20T07:01:16.050Z,91.68
2022-08-20T07:04:39.830Z,92.76
2022-08-20T07:08:04.803Z,92.31
2022-08-20T07:11:29.004Z,92.58
2022-08-20T07:14:51.844Z,93.04
2022-08-20T07:18:15.826Z,94.10
2022-08-20T07:21:51.783Z,93.89
2022-08-20T07:25:15.802Z,94.34
2022-08-20T07:28:40.773Z,95.48
2022-08-20T07:32:32.792Z,96.05
2022-08-20T07:36:00.787Z,96.26
2022-08-20T07:39:23.808Z,96.37
2022-08-20T07:42:47.793Z,96.57
2022-08-20T07:46:16.954Z,96.50
2022-08-20T07:49:39.777Z,95.68
2022-08-20T07:53:02.895Z,95.62
2022-08-20T07:56:27.964Z,95.71
2022-08-20T07:59:54.836Z,95.41
2022-08-20T08:03:18.928Z,94.78
2022-08-20T08:07:03.814Z,94.77
2022-08-20T08:10:27.818Z,94.89
2022-08-20T08:13:53.783Z,95.37
2022-08-20T08:17:19.833Z,97.63
2022-08-20T08:20:46.980Z,97.23
2022-08-20T08:24:10.826Z,97.77
2022-08-20T08:27:33.812Z,97.41
2022-08-20T08:30:56.841Z,97.42
2022-08-20T08:34:19.805Z,97.31
2022-08-20T08:37:42.840Z,97.57
2022-08-20T08:41:07.842Z,97.97
2022-08-20T08:44:32.783Z,96.90
2022-08-20T08:47:55.814Z,97.46
2022-08-20T08:51:22.791Z,97.29
2022-08-20T08:54:46.920Z,96.92
2022-08-20T08:58:17.244Z,96.92
2022-08-20T09:01:55.696Z,98.49
2022-08-20T09:05:27.841Z,100.00
2022-08-20T09:08:56.893Z,100.00
2022-08-20T09:12:21.885Z,100.00
2022-08-20T09:15:44.878Z,100.00
2022-08-20T09:19:08.864Z,100.00
2022-08-20T09:22:33.805Z,100.00
2022-08-20T09:25:56.884Z,100.00
2022-08-20T09:29:19.875Z,100.00
2022-08-20T09:32:42.872Z,100.00
2022-08-20T09:36:32.180Z,100.00
2022-08-20T09:39:50.898Z,100.00
2022-08-20T09:43:13.856Z,100.00
2022-08-20T09:46:36.868Z,100.00
2022-08-20T09:49:59.796Z,100.00
2022-08-20T09:53:22.850Z,100.00
2022-08-20T09:56:45.825Z,100.00
2022-08-20T10:00:20.815Z,100.00
2022-08-20T10:03:43.894Z,100.00
2022-08-20T10:07:00.450Z,100.00
2022-08-20T10:10:18.901Z,100.00
2022-08-20T10:13:41.849Z,100.00
2022-08-20T10:17:09.888Z,100.00
2022-08-20T10:20:32.850Z,100.00
2022-08-20T10:23:55.892Z,100.00
2022-08-20T10:27:19.828Z,100.00
2022-08-20T10:30:42.895Z,100.00
2022-08-20T10:34:06.865Z,100.00
2022-08-20T10:37:33.906Z,100.00
2022-08-20T10:40:56.862Z,100.00
2022-08-20T10:44:18.917Z,100.00
2022-08-20T10:47:43.895Z,100.00
2022-08-20T10:51:06.868Z,100.00
2022-08-20T10:54:30.842Z,100.00
2022-08-20T10:57:54.862Z,100.00
2022-08-20T11:01:31.439Z,100.00
2022-08-20T11:04:55.894Z,100.00
2022-08-20T11:08:13.771Z,100.00
2022-08-20T11:11:30.879Z,100.00
2022-08-20T11:14:53.856Z,100.00
2022-08-20T11:18:16.908Z,100.00
2022-08-20T11:21:39.886Z,100.00
2022-08-20T11:25:02.922Z,100.00
2022-08-20T11:28:31.935Z,100.00
2022-08-20T11:31:54.906Z,100.00
2022-08-20T11:39:00.933Z,100.00
2022-08-20T11:42:23.891Z,100.00
2022-08-20T11:45:47.892Z,100.00
2022-08-20T11:49:10.899Z,100.00
2022-08-20T11:52:33.899Z,100.00
2022-08-20T11:55:55.888Z,100.00
2022-08-20T11:59:18.917Z,100.00
2022-08-20T12:02:41.989Z,100.00
2022-08-20T12:06:05.911Z,100.00
2022-08-20T12:09:28.946Z,100.00
2022-08-20T12:12:51.935Z,100.00
2022-08-20T12:16:18.937Z,100.00
2022-08-20T12:19:42.929Z,100.00
2022-08-20T12:23:07.381Z,100.00
2022-08-20T12:26:31.905Z,100.00
2022-08-20T12:29:54.965Z,100.00
2022-08-20T12:33:17.943Z,100.00
2022-08-20T12:36:40.971Z,100.00
2022-08-20T12:40:05.040Z,100.00
2022-08-20T12:43:28.970Z,100.00
2022-08-20T12:46:51.983Z,100.00
2022-08-20T12:50:15.915Z,100.00
2022-08-20T12:53:37.963Z,100.00
2022-08-20T12:57:00.948Z,100.00
2022-08-20T13:00:31.973Z,100.00
2022-08-20T13:03:55.940Z,100.00
2022-08-20T13:07:18.974Z,100.00
2022-08-20T13:10:37.517Z,100.00
2022-08-20T13:13:55.987Z,100.00
2022-08-20T13:17:19.948Z,100.00
2022-08-20T13:20:52.962Z,100.00
2022-08-20T13:24:17.929Z,100.00
2022-08-20T13:27:41.002Z,100.00
2022-08-20T13:31:03.978Z,100.00
2022-08-20T13:34:26.002Z,100.00
2022-08-20T13:37:48.959Z,100.00
2022-08-20T13:41:12.942Z,100.00
2022-08-20T13:44:36.989Z,100.00
2022-08-20T13:48:00.956Z,100.00
2022-08-20T13:51:27.243Z,100.00
2022-08-20T13:54:53.960Z,100.00
2022-08-20T13:58:22.030Z,100.00
2022-08-20T14:01:44.982Z,100.00
2022-08-20T14:05:09.026Z,100.00
2022-08-20T14:08:34.935Z,100.00
2022-08-20T14:11:58.026Z,100.00
2022-08-20T14:15:21.990Z,100.00
2022-08-20T14:18:45.001Z,100.00
2022-08-20T14:22:12.964Z,100.00
2022-08-20T14:25:36.996Z,100.00
2022-08-20T14:28:59.987Z,100.00
2022-08-20T14:32:23.007Z,100.00
2022-08-20T14:35:46.992Z,100.00
2022-08-20T14:39:10.018Z,100.00
2022-08-20T14:42:34.994Z,100.00
2022-08-20T14:45:58.014Z,100.00
2022-08-20T14:49:20.971Z,100.00
2022-08-20T14:52:45.007Z,100.00
2022-08-20T14:56:07.987Z,100.00
2022-08-20T14:59:32.026Z,100.00
2022-08-20T15:02:56.150Z,100.00
2022-08-20T15:06:21.776Z,100.00
2022-08-20T15:09:49.997Z,100.00
2022-08-20T15:13:14.002Z,100.00
2022-08-20T15:16:36.988Z,100.00
2022-08-20T15:20:00.035Z,100.00
2022-08-20T15:23:23.047Z,100.00
2022-08-20T15:26:46.026Z,100.00
2022-08-20T15:30:09.033Z,100.00
2022-08-20T15:33:33.020Z,100.00
2022-08-20T15:36:57.007Z,100.00
2022-08-20T15:40:21.718Z,100.00
2022-08-20T15:43:47.988Z,100.00
2022-08-20T15:47:11.007Z,100.00
2022-08-20T15:50:37.010Z,100.00
2022-08-20T15:54:12.017Z,100.00
2022-08-20T15:57:40.991Z,100.00
2022-08-20T16:01:24.850Z,100.00
2022-08-20T16:04:58.976Z,100.00
2022-08-20T16:08:29.046Z,100.00
2022-08-20T16:12:18.005Z,100.00
2022-08-20T16:15:48.864Z,100.00
2022-08-20T16:19:12.961Z,100.00
2022-08-20T16:22:36.004Z,100.00
2022-08-20T16:26:10.973Z,100.00
2022-08-20T16:29:35.027Z,100.00
2022-08-20T16:32:59.022Z,100.00
2022-08-20T16:36:29.041Z,100.00
2022-08-20T16:40:04.078Z,100.00
2022-08-20T16:43:39.006Z,100.00
2022-08-20T16:47:09.840Z,100.00
2022-08-20T16:50:39.055Z,100.00
2022-08-20T16:54:02.029Z,100.00
2022-08-20T16:57:26.017Z,100.00
2022-08-20T17:00:49.092Z,100.00
2022-08-20T17:04:12.023Z,100.00
2022-08-20T17:07:43.227Z,100.00
2022-08-20T17:11:10.006Z,100.00
2022-08-20T17:14:34.069Z,100.00
2022-08-20T17:18:07.018Z,100.00
2022-08-20T17:21:41.029Z,100.00
2022-08-20T17:25:03.998Z,100.00
2022-08-20T17:28:35.151Z,100.00
2022-08-20T17:32:04.011Z,100.00
2022-08-20T17:35:27.080Z,100.00
2022-08-20T17:39:01.146Z,100.00
2022-08-20T17:42:26.141Z,100.00
2022-08-20T17:45:53.064Z,100.00
2022-08-20T17:49:17.156Z,100.00
2022-08-20T17:52:42.038Z,100.00
2022-08-20T17:56:00.958Z,100.00
2022-08-20T17:59:59.607Z,100.00
2022-08-20T18:03:14.055Z,100.00
2022-08-20T18:06:40.157Z,100.00
2022-08-20T18:10:05.131Z,100.00
2022-08-20T18:13:35.033Z,100.00
2022-08-20T18:17:10.073Z,100.00
2022-08-20T18:20:38.649Z,100.00
2022-08-20T18:24:04.069Z,100.00
2022-08-20T18:27:30.090Z,100.00
2022-08-20T18:31:02.048Z,100.00
2022-08-20T18:34:27.065Z,100.00
2022-08-20T18:37:54.068Z,100.00
2022-08-20T18:41:23.144Z,100.00
2022-08-20T18:44:53.156Z,100.00
2022-08-20T18:48:18.199Z,100.00
2022-08-20T18:51:50.070Z,100.00
2022-08-20T18:55:15.078Z,100.00
2022-08-20T18:58:46.206Z,100.00
2022-08-20T19:02:11.140Z,100.00
2022-08-20T19:05:39.096Z,100.00
2022-08-20T19:09:20.159Z,100.00
2022-08-20T19:12:50.077Z,100.00
2022-08-20T19:16:23.242Z,100.00
2022-08-20T19:19:46.098Z,100.00
2022-08-20T19:23:09.119Z,100.00
2022-08-20T19:26:34.097Z,100.00
2022-08-20T19:30:04.289Z,100.00
2022-08-20T19:33:27.072Z,100.00
2022-08-20T19:36:54.246Z,100.00
2022-08-20T19:40:22.088Z,100.00
2022-08-20T19:43:52.105Z,100.00
2022-08-20T19:47:19.894Z,100.00
2022-08-20T19:50:43.123Z,100.00
2022-08-20T19:54:06.140Z,100.00
2022-08-20T19:57:30.085Z,100.00
2022-08-20T20:00:57.263Z,100.00
2022-08-20T20:04:23.515Z,100.00
2022-08-20T20:08:03.102Z,100.00
2022-08-20T20:11:31.092Z,100.00
2022-08-20T20:14:54.100Z,100.00
2022-08-20T20:18:17.085Z,100.00
2022-08-20T20:21:41.225Z,100.00
2022-08-20T20:25:13.123Z,100.00
2022-08-20T20:28:38.239Z,100.00
2022-08-20T20:32:05.121Z,100.00
2022-08-20T20:35:45.243Z,100.00
2022-08-20T20:39:19.126Z,100.00
2022-08-20T20:42:43.105Z,100.00
2022-08-20T20:46:29.269Z,100.00
2022-08-20T20:50:07.102Z,100.00
2022-08-20T20:53:53.235Z,100.00
2022-08-20T20:57:19.099Z,100.00
2022-08-20T21:00:59.253Z,100.00
2022-08-20T21:04:22.103Z,100.00
2022-08-20T21:07:46.152Z,100.00
2022-08-20T21:11:14.148Z,100.00
2022-08-20T21:14:37.148Z,100.00
2022-08-20T21:18:00.285Z,100.00
2022-08-20T21:21:24.274Z,100.00
2022-08-20T21:24:48.139Z,100.00
2022-08-20T21:28:12.166Z,100.00
2022-08-20T21:31:35.133Z,100.00
2022-08-20T21:34:59.158Z,100.00
2022-08-20T21:38:22.124Z,100.00
2022-08-20T21:41:45.308Z,100.00
2022-08-20T21:45:08.143Z,100.00
2022-08-20T21:48:31.187Z,100.00
2022-08-20T21:51:55.256Z,100.00
2022-08-20T21:55:19.311Z,100.00
2022-08-20T21:58:42.129Z,100.00
2022-08-20T22:02:09.164Z,100.00
2022-08-20T22:05:32.121Z,100.00
2022-08-20T22:08:55.197Z,100.00
2022-08-20T22:12:18.398Z,100.00
2022-08-20T22:15:42.260Z,100.00
2022-08-20T22:19:06.316Z,100.00
2022-08-20T22:22:29.298Z,100.00
2022-08-20T22:25:52.206Z,100.00
2022-08-20T22:29:09.834Z,100.00
2022-08-20T22:32:33.458Z,100.00
2022-08-20T22:36:11.133Z,100.00
2022-08-20T22:39:35.309Z,100.00
2022-08-20T22:42:58.518Z,100.00
2022-08-20T22:46:23.426Z,99.63
2022-08-20T22:49:52.288Z,98.28
2022-08-20T22:53:16.221Z,98.08
2022-08-20T22:56:40.950Z,98.42
2022-08-20T23:00:05.308Z,96.38
2022-08-20T23:03:39.904Z,97.95
2022-08-20T23:07:04.187Z,95.75
2022-08-20T23:10:27.148Z,93.02
2022-08-20T23:13:50.216Z,91.24
2022-08-20T23:17:15.286Z,87.35
2022-08-20T23:20:38.277Z,83.03
2022-08-20T23:24:02.230Z,85.49
2022-08-20T23:27:27.186Z,86.02
2022-08-20T23:30:50.211Z,83.55
2022-08-20T23:34:13.183Z,86.97
2022-08-20T23:37:36.267Z,86.76
2022-08-20T23:40:59.204Z,85.58
2022-08-20T23:44:26.196Z,84.33
2022-08-20T23:47:50.298Z,81.98
2022-08-20T23:51:13.227Z,81.06
2022-08-20T23:54:36.304Z,81.70
2022-08-20T23:57:58.319Z,82.59
